sensor_id;sensor_type;location;lat;lon;timestamp;pressure;altitude;pressure_sealevel;temperature;humidity
13015;BME280;6573;57.696;11.950;2023-04-07T00:00:24;102417.25;;;8.16;100.00
13015;BME280;6573;57.696;11.950;2023-04-07T00:02:52;102419.88;;;8.16;100.00
13015;BME280;6573;57.696;11.950;2023-04-07T00:05:21;102416.22;;;8.11;100.00
13015;BME280;6573;57.696;11.950;2023-04-07T00:07:50;102417.47;;;7.97;100.00
13015;BME280;6573;57.696;11.950;2023-04-07T00:10:23;102419.16;;;7.95;100.00
13015;BME280;6573;57.696;11.950;2023-04-07T00:12:52;102427.22;;;7.75;100.00
13015;BME280;6573;57.696;11.950;2023-04-07T00:15:22;102422.09;;;7.78;100.00
13015;BME280;6573;57.696;11.950;2023-04-07T00:17:53;102423.69;;;7.73;100.00
13015;BME280;6573;57.696;11.950;2023-04-07T00:20:22;102423.75;;;7.76;100.00
13015;BME280;6573;57.696;11.950;2023-04-07T00:22:51;102418.75;;;7.82;100.00
13015;BME280;6573;57.696;11.950;2023-04-07T00:25:19;102425.78;;;7.83;100.00
13015;BME280;6573;57.696;11.950;2023-04-07T00:27:48;102427.22;;;7.75;100.00
13015;BME280;6573;57.696;11.950;2023-04-07T00:30:16;102427.97;;;7.71;100.00
13015;BME280;6573;57.696;11.950;2023-04-07T00:32:46;102424.91;;;7.59;100.00
13015;BME280;6573;57.696;11.950;2023-04-07T00:35:15;102431.50;;;7.48;100.00
13015;BME280;6573;57.696;11.950;2023-04-07T00:37:43;102429.94;;;7.53;100.00
13015;BME280;6573;57.696;11.950;2023-04-07T00:40:11;102429.41;;;7.38;100.00
13015;BME280;6573;57.696;11.950;2023-04-07T00:42:40;102440.19;;;7.47;100.00
13015;BME280;6573;57.696;11.950;2023-04-07T00:45:09;102428.25;;;7.55;100.00
13015;BME280;6573;57.696;11.950;2023-04-07T00:47:38;102436.00;;;7.52;100.00
13015;BME280;6573;57.696;11.950;2023-04-07T00:50:09;102437.44;;;7.44;100.00
13015;BME280;6573;57.696;11.950;2023-04-07T00:52:38;102441.31;;;7.30;100.00
13015;BME280;6573;57.696;11.950;2023-04-07T00:55:08;102428.84;;;7.23;100.00
13015;BME280;6573;57.696;11.950;2023-04-07T00:57:36;102444.56;;;7.23;100.00
13015;BME280;6573;57.696;11.950;2023-04-07T01:00:06;102435.19;;;7.30;100.00
13015;BME280;6573;57.696;11.950;2023-04-07T01:02:36;102450.97;;;7.31;100.00
13015;BME280;6573;57.696;11.950;2023-04-07T01:05:14;102449.91;;;7.26;100.00
13015;BME280;6573;57.696;11.950;2023-04-07T01:07:50;102440.75;;;7.15;100.00
13015;BME280;6573;57.696;11.950;2023-04-07T01:10:31;102454.97;;;7.22;100.00
13015;BME280;6573;57.696;11.950;2023-04-07T01:13:04;102445.56;;;7.27;100.00
13015;BME280;6573;57.696;11.950;2023-04-07T01:15:34;102446.44;;;7.27;100.00
13015;BME280;6573;57.696;11.950;2023-04-07T01:18:08;102447.56;;;7.34;100.00
13015;BME280;6573;57.696;11.950;2023-04-07T01:20:42;102447.84;;;7.41;100.00
13015;BME280;6573;57.696;11.950;2023-04-07T01:26:18;102421.72;;;7.19;100.00
13015;BME280;6573;57.696;11.950;2023-04-07T01:29:27;102451.66;;;7.27;100.00
13015;BME280;6573;57.696;11.950;2023-04-07T01:31:59;102431.84;;;7.10;100.00
13015;BME280;6573;57.696;11.950;2023-04-07T01:34:29;102451.22;;;7.15;100.00
13015;BME280;6573;57.696;11.950;2023-04-07T01:37:00;102452.56;;;7.04;100.00
13015;BME280;6573;57.696;11.950;2023-04-07T01:39:29;102452.31;;;6.98;100.00
13015;BME280;6573;57.696;11.950;2023-04-07T01:42:00;102446.56;;;7.06;100.00
13015;BME280;6573;57.696;11.950;2023-04-07T01:44:31;102458.13;;;7.13;100.00
13015;BME280;6573;57.696;11.950;2023-04-07T01:47:00;102449.53;;;7.17;100.00
13015;BME280;6573;57.696;11.950;2023-04-07T01:49:30;102447.53;;;7.10;100.00
13015;BME280;6573;57.696;11.950;2023-04-07T01:51:59;102453.66;;;6.87;100.00
13015;BME280;6573;57.696;11.950;2023-04-07T01:54:31;102454.59;;;6.89;100.00
13015;BME280;6573;57.696;11.950;2023-04-07T01:56:59;102437.59;;;6.78;100.00
13015;BME280;6573;57.696;11.950;2023-04-07T01:59:30;102453.28;;;6.78;100.00
13015;BME280;6573;57.696;11.950;2023-04-07T02:01:59;102460.19;;;6.76;100.00
13015;BME280;6573;57.696;11.950;2023-04-07T02:04:31;102406.28;;;6.57;100.00
13015;BME280;6573;57.696;11.950;2023-04-07T02:07:06;102468.75;;;6.72;100.00
13015;BME280;6573;57.696;11.950;2023-04-07T02:09:37;102451.38;;;6.74;100.00
13015;BME280;6573;57.696;11.950;2023-04-07T02:12:10;102468.88;;;6.97;100.00
13015;BME280;6573;57.696;11.950;2023-04-07T02:14:41;102463.63;;;6.97;100.00
13015;BME280;6573;57.696;11.950;2023-04-07T02:17:10;102472.44;;;6.77;100.00
13015;BME280;6573;57.696;11.950;2023-04-07T02:19:41;102458.13;;;6.89;100.00
13015;BME280;6573;57.696;11.950;2023-04-07T02:22:11;102462.56;;;6.92;100.00
13015;BME280;6573;57.696;11.950;2023-04-07T02:24:40;102468.00;;;6.98;100.00
13015;BME280;6573;57.696;11.950;2023-04-07T02:27:09;102473.09;;;6.93;100.00
13015;BME280;6573;57.696;11.950;2023-04-07T02:29:37;102462.31;;;6.86;100.00
13015;BME280;6573;57.696;11.950;2023-04-07T02:32:07;102451.03;;;6.87;100.00
13015;BME280;6573;57.696;11.950;2023-04-07T02:34:35;102467.81;;;6.92;100.00
13015;BME280;6573;57.696;11.950;2023-04-07T02:37:03;102468.13;;;7.01;100.00
13015;BME280;6573;57.696;11.950;2023-04-07T02:39:32;102453.38;;;7.03;100.00
13015;BME280;6573;57.696;11.950;2023-04-07T02:42:00;102466.00;;;6.91;100.00
13015;BME280;6573;57.696;11.950;2023-04-07T02:44:28;102479.50;;;6.79;100.00
13015;BME280;6573;57.696;11.950;2023-04-07T02:46:57;102487.25;;;6.56;100.00
13015;BME280;6573;57.696;11.950;2023-04-07T02:49:27;102483.22;;;6.41;100.00
13015;BME280;6573;57.696;11.950;2023-04-07T02:51:55;102490.09;;;6.19;100.00
13015;BME280;6573;57.696;11.950;2023-04-07T02:54:24;102494.31;;;6.15;100.00
13015;BME280;6573;57.696;11.950;2023-04-07T02:56:52;102499.44;;;6.12;100.00
13015;BME280;6573;57.696;11.950;2023-04-07T02:59:21;102490.22;;;6.01;100.00
13015;BME280;6573;57.696;11.950;2023-04-07T03:01:49;102500.75;;;6.23;100.00
13015;BME280;6573;57.696;11.950;2023-04-07T03:04:18;102495.97;;;6.13;100.00
13015;BME280;6573;57.696;11.950;2023-04-07T03:06:48;102483.09;;;5.97;100.00
13015;BME280;6573;57.696;11.950;2023-04-07T03:09:16;102497.13;;;5.99;100.00
13015;BME280;6573;57.696;11.950;2023-04-07T03:11:44;102510.22;;;6.01;100.00
13015;BME280;6573;57.696;11.950;2023-04-07T03:14:13;102511.53;;;6.10;100.00
13015;BME280;6573;57.696;11.950;2023-04-07T03:16:42;102505.41;;;6.30;100.00
13015;BME280;6573;57.696;11.950;2023-04-07T03:19:10;102512.16;;;6.05;100.00
13015;BME280;6573;57.696;11.950;2023-04-07T03:21:39;102468.75;;;5.68;100.00
13015;BME280;6573;57.696;11.950;2023-04-07T03:24:09;102506.88;;;5.84;100.00
13015;BME280;6573;57.696;11.950;2023-04-07T03:26:37;102505.38;;;5.89;100.00
13015;BME280;6573;57.696;11.950;2023-04-07T03:29:06;102512.25;;;5.87;100.00
13015;BME280;6573;57.696;11.950;2023-04-07T03:31:34;102510.47;;;5.86;100.00
13015;BME280;6573;57.696;11.950;2023-04-07T03:34:04;102517.88;;;5.77;100.00
13015;BME280;6573;57.696;11.950;2023-04-07T03:36:32;102511.69;;;5.75;100.00
13015;BME280;6573;57.696;11.950;2023-04-07T03:39:00;102514.03;;;5.88;100.00
13015;BME280;6573;57.696;11.950;2023-04-07T03:41:31;102524.19;;;5.82;100.00
13015;BME280;6573;57.696;11.950;2023-04-07T03:43:59;102529.28;;;5.79;100.00
13015;BME280;6573;57.696;11.950;2023-04-07T03:46:28;102528.94;;;5.91;100.00
13015;BME280;6573;57.696;11.950;2023-04-07T03:48:56;102530.25;;;6.00;100.00
13015;BME280;6573;57.696;11.950;2023-04-07T03:51:25;102528.31;;;5.96;100.00
13015;BME280;6573;57.696;11.950;2023-04-07T03:53:54;102524.09;;;5.60;100.00
13015;BME280;6573;57.696;11.950;2023-04-07T03:56:22;102538.91;;;5.61;100.00
13015;BME280;6573;57.696;11.950;2023-04-07T03:58:57;102544.13;;;5.61;100.00
13015;BME280;6573;57.696;11.950;2023-04-07T04:01:26;102535.06;;;5.53;100.00
13015;BME280;6573;57.696;11.950;2023-04-07T04:03:54;102532.06;;;5.63;100.00
13015;BME280;6573;57.696;11.950;2023-04-07T04:06:24;102534.09;;;5.70;100.00
13015;BME280;6573;57.696;11.950;2023-04-07T04:08:55;102533.41;;;5.74;100.00
13015;BME280;6573;57.696;11.950;2023-04-07T04:11:23;102533.28;;;5.52;100.00
13015;BME280;6573;57.696;11.950;2023-04-07T04:13:54;102541.66;;;5.45;100.00
13015;BME280;6573;57.696;11.950;2023-04-07T04:16:23;102535.06;;;5.53;100.00
13015;BME280;6573;57.696;11.950;2023-04-07T04:18:51;102538.09;;;5.43;100.00
13015;BME280;6573;57.696;11.950;2023-04-07T04:21:19;102546.59;;;5.39;100.00
13015;BME280;6573;57.696;11.950;2023-04-07T04:23:48;102544.69;;;5.35;100.00
13015;BME280;6573;57.696;11.950;2023-04-07T04:26:16;102539.47;;;5.35;100.00
13015;BME280;6573;57.696;11.950;2023-04-07T04:28:45;102536.25;;;5.03;100.00
13015;BME280;6573;57.696;11.950;2023-04-07T04:31:16;102555.22;;;5.18;100.00
13015;BME280;6573;57.696;11.950;2023-04-07T04:33:45;102556.84;;;5.16;100.00
13015;BME280;6573;57.696;11.950;2023-04-07T04:36:13;102558.25;;;5.28;100.00
13015;BME280;6573;57.696;11.950;2023-04-07T04:38:42;102527.34;;;4.98;100.00
13015;BME280;6573;57.696;11.950;2023-04-07T04:41:10;102498.56;;;4.79;100.00
13015;BME280;6573;57.696;11.950;2023-04-07T04:43:39;102568.41;;;5.21;100.00
13015;BME280;6573;57.696;11.950;2023-04-07T04:46:08;102553.97;;;5.47;100.00
13015;BME280;6573;57.696;11.950;2023-04-07T04:48:38;102560.34;;;5.54;100.00
13015;BME280;6573;57.696;11.950;2023-04-07T04:51:06;102560.34;;;5.35;100.00
13015;BME280;6573;57.696;11.950;2023-04-07T04:53:35;102566.91;;;5.27;100.00
13015;BME280;6573;57.696;11.950;2023-04-07T04:56:04;102573.72;;;5.23;100.00
13015;BME280;6573;57.696;11.950;2023-04-07T04:58:33;102543.25;;;5.04;100.00
13015;BME280;6573;57.696;11.950;2023-04-07T05:01:01;102571.84;;;5.20;100.00
13015;BME280;6573;57.696;11.950;2023-04-07T05:03:30;102543.72;;;4.96;100.00
13015;BME280;6573;57.696;11.950;2023-04-07T05:06:00;102590.66;;;5.13;100.00
13015;BME280;6573;57.696;11.950;2023-04-07T05:08:28;102594.59;;;5.05;100.00
13015;BME280;6573;57.696;11.950;2023-04-07T05:10:57;102602.81;;;4.95;100.00
13015;BME280;6573;57.696;11.950;2023-04-07T05:13:26;102592.38;;;4.95;100.00
13015;BME280;6573;57.696;11.950;2023-04-07T05:15:56;102585.56;;;4.99;100.00
13015;BME280;6573;57.696;11.950;2023-04-07T05:18:28;102585.66;;;5.00;100.00
13015;BME280;6573;57.696;11.950;2023-04-07T05:20:56;102578.41;;;5.12;100.00
13015;BME280;6573;57.696;11.950;2023-04-07T05:23:26;102589.28;;;5.21;100.00
13015;BME280;6573;57.696;11.950;2023-04-07T05:25:54;102594.06;;;5.12;100.00
13015;BME280;6573;57.696;11.950;2023-04-07T05:28:22;102589.78;;;4.95;100.00
13015;BME280;6573;57.696;11.950;2023-04-07T05:30:51;102595.41;;;5.04;100.00
13015;BME280;6573;57.696;11.950;2023-04-07T05:33:20;102592.44;;;5.14;100.00
13015;BME280;6573;57.696;11.950;2023-04-07T05:35:51;102598.88;;;5.03;100.00
13015;BME280;6573;57.696;11.950;2023-04-07T05:38:19;102600.75;;;5.25;100.00
13015;BME280;6573;57.696;11.950;2023-04-07T05:40:49;102601.22;;;5.16;100.00
13015;BME280;6573;57.696;11.950;2023-04-07T05:43:17;102612.72;;;5.02;100.00
13015;BME280;6573;57.696;11.950;2023-04-07T05:45:46;102609.56;;;5.09;100.00
13015;BME280;6573;57.696;11.950;2023-04-07T05:48:14;102611.66;;;5.16;100.00
13015;BME280;6573;57.696;11.950;2023-04-07T05:50:43;102605.22;;;5.28;100.00
13015;BME280;6573;57.696;11.950;2023-04-07T05:53:11;102619.53;;;5.36;100.00
13015;BME280;6573;57.696;11.950;2023-04-07T05:55:41;102606.50;;;5.55;100.00
13015;BME280;6573;57.696;11.950;2023-04-07T05:58:11;102617.31;;;5.26;100.00
13015;BME280;6573;57.696;11.950;2023-04-07T06:00:40;102621.81;;;5.10;100.00
13015;BME280;6573;57.696;11.950;2023-04-07T06:03:08;102611.53;;;5.13;100.00
13015;BME280;6573;57.696;11.950;2023-04-07T06:05:36;102623.28;;;5.23;100.00
13015;BME280;6573;57.696;11.950;2023-04-07T06:08:09;102610.88;;;5.37;100.00
13015;BME280;6573;57.696;11.950;2023-04-07T06:10:38;102614.31;;;5.36;100.00
13015;BME280;6573;57.696;11.950;2023-04-07T06:13:07;102623.44;;;5.63;100.00
13015;BME280;6573;57.696;11.950;2023-04-07T06:15:37;102608.63;;;5.63;100.00
13015;BME280;6573;57.696;11.950;2023-04-07T06:18:05;102625.91;;;5.60;100.00
13015;BME280;6573;57.696;11.950;2023-04-07T06:20:33;102602.09;;;5.35;100.00
13015;BME280;6573;57.696;11.950;2023-04-07T06:23:02;102632.63;;;5.55;100.00
13015;BME280;6573;57.696;11.950;2023-04-07T06:25:32;102634.31;;;5.91;100.00
13015;BME280;6573;57.696;11.950;2023-04-07T06:28:00;102634.16;;;6.26;100.00
13015;BME280;6573;57.696;11.950;2023-04-07T06:30:29;102634.03;;;6.23;100.00
13015;BME280;6573;57.696;11.950;2023-04-07T06:32:58;102634.75;;;6.00;100.00
13015;BME280;6573;57.696;11.950;2023-04-07T06:35:27;102627.72;;;5.99;100.00
13015;BME280;6573;57.696;11.950;2023-04-07T06:37:56;102642.66;;;5.84;100.00
13015;BME280;6573;57.696;11.950;2023-04-07T06:40:24;102637.88;;;5.93;100.00
13015;BME280;6573;57.696;11.950;2023-04-07T06:42:52;102631.78;;;5.93;100.00
13015;BME280;6573;57.696;11.950;2023-04-07T06:45:22;102642.50;;;5.99;100.00
13015;BME280;6573;57.696;11.950;2023-04-07T06:47:51;102636.53;;;6.01;100.00
13015;BME280;6573;57.696;11.950;2023-04-07T06:50:21;102611.00;;;5.96;100.00
13015;BME280;6573;57.696;11.950;2023-04-07T06:52:51;102640.53;;;6.12;100.00
13015;BME280;6573;57.696;11.950;2023-04-07T06:55:20;102643.72;;;6.26;100.00
13015;BME280;6573;57.696;11.950;2023-04-07T06:57:48;102639.09;;;6.20;100.00
13015;BME280;6573;57.696;11.950;2023-04-07T07:00:18;102650.22;;;6.35;100.00
13015;BME280;6573;57.696;11.950;2023-04-07T07:02:48;102642.25;;;6.51;100.00
13015;BME280;6573;57.696;11.950;2023-04-07T07:05:17;102646.31;;;6.45;100.00
13015;BME280;6573;57.696;11.950;2023-04-07T07:07:47;102650.91;;;6.50;100.00
13015;BME280;6573;57.696;11.950;2023-04-07T07:10:15;102626.19;;;6.42;100.00
13015;BME280;6573;57.696;11.950;2023-04-07T07:12:46;102650.66;;;6.86;100.00
13015;BME280;6573;57.696;11.950;2023-04-07T07:15:14;102625.53;;;6.69;100.00
13015;BME280;6573;57.696;11.950;2023-04-07T07:17:43;102644.66;;;7.09;100.00
13015;BME280;6573;57.696;11.950;2023-04-07T07:20:12;102626.31;;;6.87;100.00
13015;BME280;6573;57.696;11.950;2023-04-07T07:22:40;102642.22;;;7.13;100.00
13015;BME280;6573;57.696;11.950;2023-04-07T07:25:10;102646.19;;;7.04;100.00
13015;BME280;6573;57.696;11.950;2023-04-07T07:27:38;102641.19;;;7.10;100.00
13015;BME280;6573;57.696;11.950;2023-04-07T07:30:07;102654.22;;;7.29;100.00
13015;BME280;6573;57.696;11.950;2023-04-07T07:32:36;102617.88;;;6.94;100.00
13015;BME280;6573;57.696;11.950;2023-04-07T07:35:05;102623.56;;;7.27;100.00
13015;BME280;6573;57.696;11.950;2023-04-07T07:37:35;102627.28;;;7.11;100.00
13015;BME280;6573;57.696;11.950;2023-04-07T07:40:20;102652.41;;;7.72;100.00
13015;BME280;6573;57.696;11.950;2023-04-07T07:42:48;102652.66;;;7.78;100.00
13015;BME280;6573;57.696;11.950;2023-04-07T07:45:17;102625.09;;;7.90;100.00
13015;BME280;6573;57.696;11.950;2023-04-07T07:47:49;102646.97;;;8.14;100.00
13015;BME280;6573;57.696;11.950;2023-04-07T07:50:18;102596.06;;;7.83;100.00
13015;BME280;6573;57.696;11.950;2023-04-07T07:52:46;102640.44;;;8.03;100.00
13015;BME280;6573;57.696;11.950;2023-04-07T07:55:14;102628.97;;;8.23;100.00
13015;BME280;6573;57.696;11.950;2023-04-07T07:57:44;102650.16;;;8.29;100.00
13015;BME280;6573;57.696;11.950;2023-04-07T08:00:13;102651.84;;;8.27;100.00
13015;BME280;6573;57.696;11.950;2023-04-07T08:02:41;102653.44;;;8.23;100.00
13015;BME280;6573;57.696;11.950;2023-04-07T08:05:10;102663.03;;;8.23;100.00
13015;BME280;6573;57.696;11.950;2023-04-07T08:07:38;102658.69;;;8.47;100.00
13015;BME280;6573;57.696;11.950;2023-04-07T08:10:09;102655.16;;;8.70;100.00
13015;BME280;6573;57.696;11.950;2023-04-07T08:12:39;102657.13;;;8.52;100.00
13015;BME280;6573;57.696;11.950;2023-04-07T08:15:09;102647.47;;;8.76;100.00
13015;BME280;6573;57.696;11.950;2023-04-07T08:17:38;102659.38;;;9.19;100.00
13015;BME280;6573;57.696;11.950;2023-04-07T08:20:09;102662.75;;;9.15;100.00
13015;BME280;6573;57.696;11.950;2023-04-07T08:22:38;102657.59;;;9.18;100.00
13015;BME280;6573;57.696;11.950;2023-04-07T08:25:07;102642.72;;;8.91;100.00
13015;BME280;6573;57.696;11.950;2023-04-07T08:27:36;102669.78;;;9.16;100.00
13015;BME280;6573;57.696;11.950;2023-04-07T08:30:06;102671.13;;;9.30;100.00
13015;BME280;6573;57.696;11.950;2023-04-07T08:32:37;102658.47;;;9.45;100.00
13015;BME280;6573;57.696;11.950;2023-04-07T08:35:07;102636.94;;;9.86;100.00
13015;BME280;6573;57.696;11.950;2023-04-07T08:37:36;102668.25;;;10.36;100.00
13015;BME280;6573;57.696;11.950;2023-04-07T08:40:06;102652.84;;;10.84;100.00
13015;BME280;6573;57.696;11.950;2023-04-07T08:42:37;102652.53;;;10.72;100.00
13015;BME280;6573;57.696;11.950;2023-04-07T08:45:08;102657.22;;;11.55;100.00
13015;BME280;6573;57.696;11.950;2023-04-07T08:47:39;102644.16;;;11.24;100.00
13015;BME280;6573;57.696;11.950;2023-04-07T08:50:10;102661.06;;;11.69;100.00
13015;BME280;6573;57.696;11.950;2023-04-07T08:52:42;102641.78;;;11.72;100.00
13015;BME280;6573;57.696;11.950;2023-04-07T08:55:12;102650.56;;;10.98;100.00
13015;BME280;6573;57.696;11.950;2023-04-07T08:57:41;102660.41;;;11.06;100.00
13015;BME280;6573;57.696;11.950;2023-04-07T09:00:11;102668.38;;;11.08;99.99
13015;BME280;6573;57.696;11.950;2023-04-07T09:02:42;102646.97;;;11.32;100.00
13015;BME280;6573;57.696;11.950;2023-04-07T09:05:12;102649.16;;;11.49;98.60
13015;BME280;6573;57.696;11.950;2023-04-07T09:07:41;102648.94;;;11.78;98.61
13015;BME280;6573;57.696;11.950;2023-04-07T09:10:10;102653.50;;;11.47;98.21
13015;BME280;6573;57.696;11.950;2023-04-07T09:12:39;102654.00;;;11.68;97.53
13015;BME280;6573;57.696;11.950;2023-04-07T09:15:09;102650.59;;;11.35;97.53
13015;BME280;6573;57.696;11.950;2023-04-07T09:17:37;102656.22;;;11.13;98.15
13015;BME280;6573;57.696;11.950;2023-04-07T09:20:08;102646.31;;;11.40;97.89
13015;BME280;6573;57.696;11.950;2023-04-07T09:22:38;102638.09;;;11.65;96.62
13015;BME280;6573;57.696;11.950;2023-04-07T09:25:13;102624.34;;;11.40;97.04
13015;BME280;6573;57.696;11.950;2023-04-07T09:28:04;102640.59;;;11.59;97.17
13015;BME280;6573;57.696;11.950;2023-04-07T09:30:32;102650.78;;;11.82;96.82
13015;BME280;6573;57.696;11.950;2023-04-07T09:33:01;102640.94;;;11.73;97.22
13015;BME280;6573;57.696;11.950;2023-04-07T09:35:50;102657.22;;;11.55;96.43
13015;BME280;6573;57.696;11.950;2023-04-07T09:38:20;102657.13;;;11.52;97.29
13015;BME280;6573;57.696;11.950;2023-04-07T09:40:48;102635.97;;;11.49;97.33
13015;BME280;6573;57.696;11.950;2023-04-07T09:43:18;102648.03;;;11.38;97.12
13015;BME280;6573;57.696;11.950;2023-04-07T09:45:47;102648.16;;;11.44;97.25
13015;BME280;6573;57.696;11.950;2023-04-07T09:48:19;102596.22;;;11.78;97.30
13015;BME280;6573;57.696;11.950;2023-04-07T09:50:49;102631.91;;;12.04;96.18
13015;BME280;6573;57.696;11.950;2023-04-07T09:53:17;102644.72;;;12.29;95.73
13015;BME280;6573;57.696;11.950;2023-04-07T09:55:47;102625.72;;;12.48;95.63
13015;BME280;6573;57.696;11.950;2023-04-07T09:58:16;102630.47;;;12.19;95.15
13015;BME280;6573;57.696;11.950;2023-04-07T10:00:45;102636.03;;;11.91;95.53
13015;BME280;6573;57.696;11.950;2023-04-07T10:03:14;102633.44;;;11.93;95.87
13015;BME280;6573;57.696;11.950;2023-04-07T10:05:44;102621.81;;;12.28;95.87
13015;BME280;6573;57.696;11.950;2023-04-07T10:08:16;102614.47;;;12.10;95.95
13015;BME280;6573;57.696;11.950;2023-04-07T10:10:46;102614.72;;;12.24;96.32
13015;BME280;6573;57.696;11.950;2023-04-07T10:13:17;102621.25;;;11.98;96.14
13015;BME280;6573;57.696;11.950;2023-04-07T10:15:45;102620.78;;;11.77;96.24
13015;BME280;6573;57.696;11.950;2023-04-07T10:18:16;102614.41;;;12.09;95.94
13015;BME280;6573;57.696;11.950;2023-04-07T10:20:48;102618.53;;;11.95;96.33
13015;BME280;6573;57.696;11.950;2023-04-07T10:23:25;102610.38;;;11.83;96.36
13015;BME280;6573;57.696;11.950;2023-04-07T10:25:56;102613.78;;;12.20;95.90
13015;BME280;6573;57.696;11.950;2023-04-07T10:28:27;102602.28;;;12.18;96.09
13015;BME280;6573;57.696;11.950;2023-04-07T10:30:57;102606.25;;;11.97;96.51
13015;BME280;6573;57.696;11.950;2023-04-07T10:33:44;102611.09;;;12.19;95.92
13015;BME280;6573;57.696;11.950;2023-04-07T10:36:13;102618.25;;;12.26;96.29
13015;BME280;6573;57.696;11.950;2023-04-07T10:39:17;102611.03;;;12.62;95.64
13015;BME280;6573;57.696;11.950;2023-04-07T10:41:47;102612.34;;;12.38;94.84
13015;BME280;6573;57.696;11.950;2023-04-07T10:44:44;102617.75;;;12.94;94.43
13015;BME280;6573;57.696;11.950;2023-04-07T10:47:13;102611.41;;;12.35;94.00
13015;BME280;6573;57.696;11.950;2023-04-07T10:50:15;102613.19;;;12.35;94.53
13015;BME280;6573;57.696;11.950;2023-04-07T10:52:45;102612.75;;;12.14;94.99
13015;BME280;6573;57.696;11.950;2023-04-07T10:55:32;102615.59;;;12.23;94.97
13015;BME280;6573;57.696;11.950;2023-04-07T10:58:14;102615.69;;;12.27;94.01
13015;BME280;6573;57.696;11.950;2023-04-07T11:03:58;102612.00;;;12.67;92.73
13015;BME280;6573;57.696;11.950;2023-04-07T11:06:27;102606.53;;;12.58;92.22
13015;BME280;6573;57.696;11.950;2023-04-07T11:08:55;102599.50;;;12.57;92.39
13015;BME280;6573;57.696;11.950;2023-04-07T11:11:39;102588.59;;;12.39;91.99
13015;BME280;6573;57.696;11.950;2023-04-07T11:14:08;102590.44;;;12.43;91.92
13015;BME280;6573;57.696;11.950;2023-04-07T11:16:41;102593.13;;;12.45;90.92
13015;BME280;6573;57.696;11.950;2023-04-07T11:19:11;102594.78;;;12.40;91.55
13015;BME280;6573;57.696;11.950;2023-04-07T11:21:40;102589.88;;;12.61;90.27
13015;BME280;6573;57.696;11.950;2023-04-07T11:24:08;102577.16;;;12.89;90.00
13015;BME280;6573;57.696;11.950;2023-04-07T11:26:39;102588.06;;;13.11;88.93
13015;BME280;6573;57.696;11.950;2023-04-07T11:29:08;102603.25;;;12.71;89.20
13015;BME280;6573;57.696;11.950;2023-04-07T11:31:39;102590.94;;;12.72;89.68
13015;BME280;6573;57.696;11.950;2023-04-07T11:34:08;102597.22;;;12.78;90.15
13015;BME280;6573;57.696;11.950;2023-04-07T11:36:39;102582.00;;;12.62;90.09
13015;BME280;6573;57.696;11.950;2023-04-07T11:39:17;102595.59;;;12.86;89.65
13015;BME280;6573;57.696;11.950;2023-04-07T11:41:49;102584.81;;;13.27;88.72
13015;BME280;6573;57.696;11.950;2023-04-07T11:44:20;102582.34;;;13.40;88.38
13015;BME280;6573;57.696;11.950;2023-04-07T11:46:52;102563.72;;;12.76;88.54
13015;BME280;6573;57.696;11.950;2023-04-07T11:49:23;102586.63;;;13.31;88.15
13015;BME280;6573;57.696;11.950;2023-04-07T11:51:57;102600.22;;;12.99;87.50
13015;BME280;6573;57.696;11.950;2023-04-07T11:54:26;102596.69;;;13.00;87.26
13015;BME280;6573;57.696;11.950;2023-04-07T11:56:56;102596.44;;;12.85;87.31
13015;BME280;6573;57.696;11.950;2023-04-07T11:59:24;102588.72;;;12.97;87.06
13015;BME280;6573;57.696;11.950;2023-04-07T12:01:54;102595.78;;;12.98;87.34
13015;BME280;6573;57.696;11.950;2023-04-07T12:04:23;102573.13;;;13.11;86.66
13015;BME280;6573;57.696;11.950;2023-04-07T12:06:52;102584.81;;;13.30;86.97
13015;BME280;6573;57.696;11.950;2023-04-07T12:09:31;102584.66;;;13.18;86.07
13015;BME280;6573;57.696;11.950;2023-04-07T12:12:05;102583.84;;;13.22;85.88
13015;BME280;6573;57.696;11.950;2023-04-07T12:14:34;102588.44;;;13.35;86.37
13015;BME280;6573;57.696;11.950;2023-04-07T12:17:02;102581.69;;;13.58;86.28
13015;BME280;6573;57.696;11.950;2023-04-07T12:19:31;102574.63;;;13.57;85.80
13015;BME280;6573;57.696;11.950;2023-04-07T12:22:00;102581.78;;;13.64;85.47
13015;BME280;6573;57.696;11.950;2023-04-07T12:24:28;102557.47;;;13.26;85.23
13015;BME280;6573;57.696;11.950;2023-04-07T12:26:58;102571.22;;;13.67;85.14
13015;BME280;6573;57.696;11.950;2023-04-07T12:29:28;102590.53;;;13.60;84.27
13015;BME280;6573;57.696;11.950;2023-04-07T12:31:56;102576.66;;;13.76;83.86
13015;BME280;6573;57.696;11.950;2023-04-07T12:34:25;102562.44;;;13.68;83.55
13015;BME280;6573;57.696;11.950;2023-04-07T12:36:53;102574.00;;;13.76;83.59
13015;BME280;6573;57.696;11.950;2023-04-07T12:39:22;102575.06;;;13.90;83.09
13015;BME280;6573;57.696;11.950;2023-04-07T12:41:51;102552.03;;;13.83;82.48
13015;BME280;6573;57.696;11.950;2023-04-07T12:44:19;102568.53;;;14.38;81.31
13015;BME280;6573;57.696;11.950;2023-04-07T12:46:49;102539.97;;;14.09;80.62
13015;BME280;6573;57.696;11.950;2023-04-07T12:49:18;102565.28;;;14.69;80.53
13015;BME280;6573;57.696;11.950;2023-04-07T12:51:46;102545.94;;;14.76;80.28
13015;BME280;6573;57.696;11.950;2023-04-07T12:54:14;102566.63;;;14.27;79.35
13015;BME280;6573;57.696;11.950;2023-04-07T12:56:42;102565.50;;;14.01;80.20
13015;BME280;6573;57.696;11.950;2023-04-07T12:59:11;102554.00;;;14.02;80.51
13015;BME280;6573;57.696;11.950;2023-04-07T13:01:40;102562.75;;;13.95;80.40
13015;BME280;6573;57.696;11.950;2023-04-07T13:04:10;102570.66;;;13.92;80.58
13015;BME280;6573;57.696;11.950;2023-04-07T13:06:40;102562.75;;;13.94;80.73
13015;BME280;6573;57.696;11.950;2023-04-07T13:09:09;102560.13;;;13.95;81.41
13015;BME280;6573;57.696;11.950;2023-04-07T13:11:37;102568.56;;;13.66;81.00